Time;durP1;ratioP1;P1;durP2;ratioP2;P2;SDS_P1;SDS_P2;PMS_P1;PMS_P2;Temp;Humidity;BMP_temperature;BMP_pressure;BME280_temperature;BME280_humidity;BME280_pressure;Samples;Min_cycle;Max_cycle;Signal;HPM_P1;HPM_P2
2022/10/09 00:09:16;;;;;;;0.60;0.50;;;;;;;17.90;100.00;102192.69;21214547;27;20087;-76
2022/10/09 00:19:17;;;;;;;1.90;0.60;;;;;;;17.89;100.00;102193.66;21213614;27;20061;-76
2022/10/09 00:29:18;;;;;;;1.27;0.70;;;;;;;17.89;100.00;102201.72;21195214;27;20047;-76
2022/10/09 00:39:20;;;;;;;2.92;1.60;;;;;;;17.88;100.00;102195.47;21213347;27;20055;-76
2022/10/09 00:49:46;;;;;;;1.05;0.50;;;;;;;17.88;100.00;102200.84;21125342;27;20464;-75
2022/10/09 00:59:47;;;;;;;1.33;0.60;;;;;;;17.87;100.00;102203.66;21210673;27;20118;-76
2022/10/09 01:09:52;;;;;;;1.05;0.50;;;;;;;17.86;100.00;102194.72;21210498;27;20101;-76
2022/10/09 01:20:03;;;;;;;1.10;0.90;;;;;;;17.86;100.00;102197.41;21227644;27;20067;-76
2022/10/09 01:30:09;;;;;;;2.22;0.60;;;;;;;17.67;100.00;102162.78;21226449;27;20096;-76
2022/10/09 01:40:14;;;;;;;0.88;0.65;;;;;;;17.85;100.00;102192.13;21226933;27;20047;-76
2022/10/09 01:50:29;;;;;;;0.80;0.65;;;;;;;17.83;100.00;102187.72;21166900;27;20050;-76
2022/10/09 02:00:34;;;;;;;0.90;0.50;;;;;;;17.48;100.00;102137.09;21222976;27;20055;-76
2022/10/09 02:10:36;;;;;;;0.47;0.40;;;;;;;17.83;100.00;102176.94;21222943;27;20047;-76
2022/10/09 02:20:41;;;;;;;0.77;0.50;;;;;;;17.56;100.00;102135.72;21223314;27;20047;-76
2022/10/09 02:30:50;;;;;;;1.10;0.70;;;;;;;17.81;100.00;102173.50;21219190;27;20071;-76
2022/10/09 02:40:52;;;;;;;0.93;0.40;;;;;;;17.81;100.00;102161.84;21206388;27;20045;-76
2022/10/09 02:50:53;;;;;;;1.00;0.50;;;;;;;17.71;100.00;102150.84;21158054;27;20070;-76
2022/10/09 03:00:55;;;;;;;0.95;0.50;;;;;;;17.62;100.00;102148.75;21219533;27;20043;-76
2022/10/09 03:10:56;;;;;;;0.63;0.40;;;;;;;17.69;100.00;102147.41;21217375;27;20564;-76
2022/10/09 03:20:57;;;;;;;2.03;0.85;;;;;;;17.79;100.00;102163.78;21191667;27;20082;-76
2022/10/09 03:30:59;;;;;;;0.77;0.70;;;;;;;17.63;100.00;102134.31;20794811;27;20049;-75
2022/10/09 03:41:02;;;;;;;2.20;1.02;;;;;;;17.73;100.00;102137.25;20730532;27;20421;-76
2022/10/09 03:51:04;;;;;;;1.23;0.70;;;;;;;17.67;99.23;102122.38;20748558;27;20057;-77
2022/10/09 04:01:05;;;;;;;3.22;1.00;;;;;;;18.01;100.00;102168.59;20740476;27;20387;-76
2022/10/09 04:11:07;;;;;;;3.58;1.60;;;;;;;18.06;100.00;102176.34;20772403;27;20053;-77
2022/10/09 04:21:08;;;;;;;5.78;0.90;;;;;;;18.07;100.00;102176.22;20741309;27;20081;-79
2022/10/09 04:31:10;;;;;;;2.72;1.13;;;;;;;18.07;100.00;102165.47;20905706;27;20160;-76
2022/10/09 04:41:11;;;;;;;1.10;0.70;;;;;;;17.94;100.00;102145.69;20917310;27;20054;-75
2022/10/09 04:51:15;;;;;;;1.73;0.70;;;;;;;18.03;100.00;102165.78;20888855;27;20043;-75
2022/10/09 05:01:22;;;;;;;5.15;1.25;;;;;;;18.01;100.00;102173.97;20946564;27;20144;-76
2022/10/09 05:11:24;;;;;;;2.35;0.50;;;;;;;18.00;100.00;102149.81;20876834;27;20511;-75
2022/10/09 05:21:26;;;;;;;1.15;0.60;;;;;;;18.01;100.00;102162.34;20877676;27;20450;-76
2022/10/09 05:31:28;;;;;;;1.10;0.73;;;;;;;17.98;100.00;102158.88;20875782;27;20084;-76
2022/10/09 05:41:30;;;;;;;1.40;0.82;;;;;;;17.99;100.00;102162.41;20965434;27;20055;-76
2022/10/09 05:51:34;;;;;;;0.73;0.52;;;;;;;17.98;100.00;102172.34;21198055;27;20045;-76
2022/10/09 06:01:38;;;;;;;1.33;0.60;;;;;;;17.97;100.00;102167.03;20763512;27;20099;-76
2022/10/09 06:11:40;;;;;;;1.33;0.63;;;;;;;17.98;100.00;102168.75;20757809;27;20121;-76
2022/10/09 06:21:42;;;;;;;0.75;0.50;;;;;;;17.97;100.00;102172.44;20774331;27;20044;-76
2022/10/09 06:31:44;;;;;;;1.27;0.60;;;;;;;17.97;100.00;102184.09;20755076;27;20045;-75
2022/10/09 06:41:45;;;;;;;2.40;0.75;;;;;;;17.97;100.00;102189.47;20772084;27;20050;-76
2022/10/09 06:52:16;;;;;;;0.93;0.70;;;;;;;17.97;100.00;102194.84;20755668;27;20070;-75
2022/10/09 07:02:17;;;;;;;1.33;0.68;;;;;;;17.77;100.00;102161.19;20758264;27;20073;-76
2022/10/09 07:12:19;;;;;;;0.90;0.43;;;;;;;18.00;100.00;102201.00;20764920;27;20045;-76
2022/10/09 07:22:20;;;;;;;0.93;0.55;;;;;;;18.01;100.00;102200.91;20752232;27;20049;-75
2022/10/09 07:32:27;;;;;;;0.90;0.50;;;;;;;18.01;100.00;102209.00;20752843;27;20425;-75
2022/10/09 07:42:28;;;;;;;0.63;0.47;;;;;;;18.08;100.00;102207.59;20930414;27;20436;-75
2022/10/09 07:52:30;;;;;;;0.73;0.50;;;;;;;18.02;100.00;102194.56;20913484;27;20049;-76
2022/10/09 08:02:31;;;;;;;1.05;0.50;;;;;;;18.17;100.00;102208.81;20931437;27;20128;-75
2022/10/09 08:12:33;;;;;;;0.73;0.50;;;;;;;18.21;100.00;102206.78;20995961;27;20071;-75
2022/10/09 08:22:34;;;;;;;0.30;0.30;;;;;;;18.22;100.00;102208.50;21120691;27;20393;-76
2022/10/09 08:32:36;;;;;;;0.80;0.50;;;;;;;18.24;100.00;102210.09;20889925;27;20522;-77
2022/10/09 08:42:41;;;;;;;1.50;0.60;;;;;;;18.22;100.00;102213.91;20853902;27;20080;-75
2022/10/09 08:53:02;;;;;;;0.57;0.40;;;;;;;18.23;100.00;102205.69;20719324;27;20046;-75
2022/10/09 09:03:42;;;;;;;0.90;0.50;;;;;;;17.69;100.00;102104.31;20782390;27;20048;-75
2022/10/09 09:14:01;;;;;;;2.63;0.63;;;;;;;18.19;100.00;102196.09;20736551;27;20053;-75
2022/10/09 09:24:15;;;;;;;0.50;0.43;;;;;;;18.15;100.00;102180.25;20713943;27;20062;-76
2022/10/09 09:34:22;;;;;;;0.70;0.40;;;;;;;18.16;100.00;102168.50;20767366;27;20117;-74
2022/10/09 09:44:24;;;;;;;2.72;0.57;;;;;;;18.18;100.00;102153.09;20847267;27;20414;-75
2022/10/09 09:54:29;;;;;;;1.38;0.60;;;;;;;18.21;100.00;102153.72;20785039;27;20060;-75
2022/10/09 10:04:31;;;;;;;1.17;0.57;;;;;;;18.24;100.00;102140.03;20846472;27;20085;-75
2022/10/09 10:14:33;;;;;;;2.13;0.80;;;;;;;18.25;100.00;102139.06;20841413;27;20046;-75
2022/10/09 10:24:40;;;;;;;1.17;0.80;;;;;;;18.20;100.00;102118.81;20749362;27;20502;-75
2022/10/09 10:34:57;;;;;;;1.20;0.70;;;;;;;18.26;98.79;102107.59;20747052;27;20118;-75
2022/10/09 10:45:23;;;;;;;1.33;0.60;;;;;;;18.21;98.78;102098.97;20708034;27;20153;-75
2022/10/09 10:55:45;;;;;;;0.57;0.43;;;;;;;18.17;98.95;102083.97;20758888;27;20046;-75
2022/10/09 11:05:54;;;;;;;1.73;0.60;;;;;;;18.13;99.23;102085.19;20737132;27;20073;-75
2022/10/09 11:16:24;;;;;;;0.50;0.38;;;;;;;18.09;99.62;102062.97;20732963;27;20094;-74
2022/10/09 11:26:47;;;;;;;1.50;0.43;;;;;;;18.06;99.63;102047.84;20701463;27;20065;-75
2022/10/09 11:36:49;;;;;;;0.63;0.40;;;;;;;18.06;99.76;102028.16;20719943;27;20057;-75
2022/10/09 11:47:02;;;;;;;0.80;0.50;;;;;;;18.04;99.86;102009.38;20726472;27;20049;-75
2022/10/09 11:57:09;;;;;;;0.80;0.43;;;;;;;17.96;100.00;101992.88;20730590;27;20056;-75
2022/10/09 12:07:25;;;;;;;1.80;0.57;;;;;;;18.02;100.00;101983.53;20715608;27;20041;-74
2022/10/09 12:17:27;;;;;;;2.00;0.40;;;;;;;18.01;100.00;101962.94;20704370;27;20141;-75
2022/10/09 12:27:37;;;;;;;1.20;0.57;;;;;;;18.00;100.00;101945.88;20722327;27;20084;-74
2022/10/09 12:37:38;;;;;;;0.85;0.40;;;;;;;18.01;100.00;101936.00;20717496;27;20585;-74
2022/10/09 12:47:40;;;;;;;0.65;0.47;;;;;;;18.00;100.00;101924.31;20716892;27;20130;-74
2022/10/09 12:57:42;;;;;;;0.52;0.40;;;;;;;17.99;100.00;101890.28;20699837;27;20053;-75
2022/10/09 13:07:49;;;;;;;0.98;0.40;;;;;;;17.89;100.00;101859.59;20719841;27;20041;-75
2022/10/09 13:17:51;;;;;;;0.40;0.40;;;;;;;17.98;100.00;101861.59;20738309;27;20148;-74
2022/10/09 13:27:53;;;;;;;1.50;0.52;;;;;;;17.98;100.00;101850.84;20715003;27;20498;-75
2022/10/09 13:37:54;;;;;;;0.68;0.40;;;;;;;17.97;100.00;101823.03;20723045;27;20651;-75
2022/10/09 13:47:56;;;;;;;1.27;0.52;;;;;;;17.97;100.00;101820.34;20713599;27;20061;-75
2022/10/09 13:57:57;;;;;;;0.40;0.40;;;;;;;17.60;100.00;101730.63;20710619;27;20056;-75
2022/10/09 14:07:59;;;;;;;0.68;0.40;;;;;;;17.97;100.00;101773.66;20714141;27;20050;-76
2022/10/09 14:18:00;;;;;;;0.57;0.40;;;;;;;17.97;100.00;101762.91;20720410;27;20050;-76
2022/10/09 14:28:02;;;;;;;0.40;0.40;;;;;;;17.96;100.00;101740.50;20719827;27;20746;-76
2022/10/09 14:38:03;;;;;;;1.08;0.43;;;;;;;17.95;100.00;101728.00;20744697;27;20053;-75
2022/10/09 14:48:05;;;;;;;0.73;0.47;;;;;;;17.67;100.00;101669.97;20759070;27;20533;-75
2022/10/09 14:58:06;;;;;;;0.65;0.40;;;;;;;17.83;100.00;101680.44;20726952;27;20056;-75
2022/10/09 15:08:08;;;;;;;0.32;0.30;;;;;;;17.96;100.00;101699.22;20763708;27;20056;-75
2022/10/09 15:18:09;;;;;;;1.55;0.63;;;;;;;17.96;100.00;101677.66;20781374;27;20073;-75
2022/10/09 15:28:12;;;;;;;0.50;0.38;;;;;;;17.93;100.00;101659.91;20782834;27;20061;-75
2022/10/09 15:38:15;;;;;;;1.38;0.45;;;;;;;17.94;100.00;101640.09;20733658;27;20053;-76
2022/10/09 15:48:19;;;;;;;0.63;0.55;;;;;;;17.93;100.00;101642.88;20732572;27;20098;-75
2022/10/09 15:58:21;;;;;;;0.50;0.40;;;;;;;17.93;100.00;101621.34;20732191;27;20134;-74
2022/10/09 16:08:22;;;;;;;0.63;0.40;;;;;;;17.92;100.00;101619.63;20726472;27;20054;-75
2022/10/09 16:18:24;;;;;;;0.90;0.43;;;;;;;17.91;100.00;101604.44;20749087;27;20099;-75
2022/10/09 16:28:25;;;;;;;0.70;0.52;;;;;;;17.91;100.00;101607.13;20715755;27;20603;-75
2022/10/09 16:38:27;;;;;;;0.70;0.50;;;;;;;17.61;100.00;101560.91;20708231;27;20138;-75
2022/10/09 16:48:28;;;;;;;0.55;0.40;;;;;;;17.89;100.00;101601.84;20738259;27;20741;-76
2022/10/09 16:58:30;;;;;;;0.93;0.38;;;;;;;17.90;100.00;101597.31;20685225;27;1051330;-76
2022/10/09 17:08:31;;;;;;;0.47;0.40;;;;;;;17.63;100.00;101540.09;20739053;27;20085;-77
2022/10/09 17:18:34;;;;;;;1.42;0.50;;;;;;;17.73;100.00;101561.81;20717235;27;20070;-76
2022/10/09 17:28:35;;;;;;;1.17;0.60;;;;;;;17.88;100.00;101575.03;20691592;27;20065;-77
2022/10/09 17:38:37;;;;;;;1.10;0.60;;;;;;;17.87;100.00;101578.72;21014815;27;20061;-76
2022/10/09 17:48:43;;;;;;;2.90;0.60;;;;;;;17.57;100.00;101529.81;20800685;27;20136;-76
2022/10/09 17:58:48;;;;;;;0.60;0.40;;;;;;;17.78;100.00;101556.91;20888348;27;20106;-76
2022/10/09 18:08:51;;;;;;;0.47;0.38;;;;;;;17.85;100.00;101565.34;20855036;27;20045;-76
2022/10/09 18:18:53;;;;;;;0.70;0.40;;;;;;;17.58;100.00;101515.38;20804488;27;20164;-76
2022/10/09 18:28:54;;;;;;;0.60;0.40;;;;;;;17.83;100.00;101546.63;20858943;27;20066;-76
2022/10/09 18:39:05;;;;;;;0.47;0.43;;;;;;;17.83;100.00;101541.25;20836035;27;20069;-76
2022/10/09 18:49:09;;;;;;;0.43;0.43;;;;;;;17.83;100.00;101529.59;20853802;27;20045;-76
2022/10/09 18:59:14;;;;;;;0.82;0.43;;;;;;;17.82;100.00;101511.72;20930060;27;20156;-76
2022/10/09 19:09:15;;;;;;;0.95;0.30;;;;;;;17.78;100.00;101494.97;20853080;27;20056;-76
2022/10/09 19:19:17;;;;;;;1.00;0.50;;;;;;;17.65;100.00;101470.84;20950140;27;20054;-76
2022/10/09 19:29:18;;;;;;;0.85;0.40;;;;;;;17.81;100.00;101473.19;20899813;27;20045;-76
2022/10/09 19:39:21;;;;;;;1.52;0.50;;;;;;;17.76;100.00;101456.53;20842670;27;20077;-76
2022/10/09 19:49:22;;;;;;;1.10;0.40;;;;;;;17.81;100.00;101462.41;20831546;27;20060;-76
2022/10/09 19:59:24;;;;;;;1.58;0.60;;;;;;;17.45;100.00;101397.03;20883887;27;20044;-76
2022/10/09 20:09:25;;;;;;;0.43;0.40;;;;;;;17.78;100.00;101451.88;20917671;27;20473;-76
2022/10/09 20:19:29;;;;;;;1.25;0.50;;;;;;;17.78;100.00;101449.19;20969612;27;20047;-76
2022/10/09 20:29:31;;;;;;;0.80;0.30;;;;;;;17.78;100.00;101434.84;21213060;27;20062;-76
2022/10/09 20:39:32;;;;;;;0.70;0.50;;;;;;;17.79;100.00;101440.13;21213187;27;20053;-76
2022/10/09 20:49:34;;;;;;;0.40;0.40;;;;;;;17.78;100.00;101419.56;21211068;27;20050;-76
2022/10/09 20:59:35;;;;;;;0.40;0.32;;;;;;;17.77;100.00;101407.06;21212312;27;20138;-76
2022/10/09 21:09:36;;;;;;;0.30;0.30;;;;;;;17.78;100.00;101407.91;21211292;27;20058;-80
2022/10/09 21:19:38;;;;;;;0.75;0.50;;;;;;;17.59;100.00;101360.06;21147921;27;20051;-76
2022/10/09 21:29:39;;;;;;;0.52;0.40;;;;;;;17.76;100.00;101378.44;21214476;27;20138;-76
2022/10/09 21:39:41;;;;;;;0.50;0.40;;;;;;;17.76;100.00;101381.13;21226522;27;20086;-76
2022/10/09 21:49:42;;;;;;;0.65;0.50;;;;;;;17.75;100.00;101360.56;21225647;27;20134;-76
2022/10/09 21:59:44;;;;;;;0.40;0.30;;;;;;;17.74;100.00;101356.16;21206344;27;20042;-76
2022/10/09 22:09:45;;;;;;;0.50;0.30;;;;;;;17.67;100.00;101325.28;21224315;27;20096;-76
2022/10/09 22:19:47;;;;;;;0.40;0.40;;;;;;;17.35;100.00;101261.47;21137966;27;20051;-76
2022/10/09 22:29:48;;;;;;;1.05;0.40;;;;;;;17.75;100.00;101316.59;21220964;27;20567;-76
2022/10/09 22:39:50;;;;;;;0.60;0.43;;;;;;;17.73;100.00;101310.50;21203520;27;20053;-77
2022/10/09 22:49:51;;;;;;;0.50;0.43;;;;;;;17.73;100.00;101302.41;21219903;27;20527;-76
2022/10/09 22:59:52;;;;;;;0.60;0.47;;;;;;;17.71;100.00;101297.16;21221136;27;20035;-76
2022/10/09 23:09:54;;;;;;;0.57;0.50;;;;;;;17.64;100.00;101272.56;21220169;27;20198;-76
2022/10/09 23:19:55;;;;;;;0.32;0.30;;;;;;;17.58;100.00;101256.06;21162094;27;20150;-76
2022/10/09 23:29:57;;;;;;;0.45;0.40;;;;;;;17.71;100.00;101263.97;21218324;27;20054;-76
2022/10/09 23:39:58;;;;;;;0.57;0.32;;;;;;;17.70;100.00;101252.38;21216984;27;20058;-76
2022/10/09 23:50:00;;;;;;;0.70;0.43;;;;;;;17.71;100.00;101246.00;21215707;27;20039;-77
